createdAt,value
2023-03-01T00:01:46.371Z,47.70
2023-03-01T00:04:15.575Z,47.70
2023-03-01T00:06:47.006Z,47.80
2023-03-01T00:09:15.029Z,47.60
2023-03-01T00:11:43.432Z,47.70
2023-03-01T00:14:11.619Z,47.70
2023-03-01T00:16:41.456Z,47.70
2023-03-01T00:19:13.154Z,47.60
2023-03-01T00:21:42.782Z,47.80
2023-03-01T00:24:11.314Z,47.60
2023-03-01T00:26:39.948Z,47.60
2023-03-01T00:29:08.013Z,47.60
2023-03-01T00:31:36.470Z,47.60
2023-03-01T00:34:06.733Z,48.30
2023-03-01T00:36:36.975Z,48.30
2023-03-01T00:39:07.907Z,47.70
2023-03-01T00:41:35.977Z,47.60
2023-03-01T00:44:03.852Z,47.60
2023-03-01T00:46:32.592Z,47.60
2023-03-01T00:49:02.976Z,47.60
2023-03-01T00:51:31.352Z,47.60
2023-03-01T00:54:01.486Z,47.70
2023-03-01T00:56:32.050Z,47.60
2023-03-01T00:59:00.219Z,47.70
2023-03-01T01:01:31.450Z,47.60
2023-03-01T01:04:00.750Z,47.60
2023-03-01T01:06:32.595Z,47.60
2023-03-01T01:09:00.973Z,47.60
2023-03-01T01:11:31.666Z,47.60
2023-03-01T01:14:00.304Z,47.60
2023-03-01T01:16:29.782Z,47.60
2023-03-01T01:18:57.987Z,47.60
2023-03-01T01:21:27.697Z,47.60
2023-03-01T01:23:56.717Z,47.60
2023-03-01T01:26:26.602Z,47.60
2023-03-01T01:28:56.497Z,47.60
2023-03-01T01:31:25.191Z,47.60
2023-03-01T01:33:53.816Z,47.60
2023-03-01T01:36:22.283Z,47.60
2023-03-01T01:38:50.149Z,47.60
2023-03-01T01:41:19.002Z,47.60
2023-03-01T01:43:49.276Z,47.60
2023-03-01T01:46:28.079Z,47.60
2023-03-01T01:48:59.418Z,47.60
2023-03-01T01:51:30.543Z,47.60
2023-03-01T01:54:02.667Z,47.60
2023-03-01T01:56:31.896Z,47.60
2023-03-01T01:59:00.259Z,47.60
2023-03-01T02:01:29.625Z,47.60
2023-03-01T02:03:57.598Z,47.60
2023-03-01T02:06:31.316Z,47.60
2023-03-01T02:09:02.975Z,47.60
2023-03-01T02:11:32.111Z,47.60
2023-03-01T02:14:00.281Z,47.60
2023-03-01T02:16:30.295Z,47.60
2023-03-01T02:18:59.260Z,47.60
2023-03-01T02:21:39.409Z,47.60
2023-03-01T02:24:19.277Z,47.60
2023-03-01T02:26:53.517Z,47.60
2023-03-01T02:29:23.317Z,47.60
2023-03-01T02:31:53.145Z,47.60
2023-03-01T02:34:23.853Z,47.60
2023-03-01T02:36:55.746Z,47.60
2023-03-01T02:39:27.377Z,47.60
2023-03-01T02:41:58.281Z,47.60
2023-03-01T02:44:27.560Z,47.60
2023-03-01T02:46:58.603Z,47.60
2023-03-01T02:49:28.943Z,47.60
2023-03-01T02:52:29.343Z,47.60
2023-03-01T02:55:02.741Z,47.60
2023-03-01T02:57:33.052Z,47.60
2023-03-01T03:00:07.996Z,47.60
2023-03-01T03:02:39.649Z,47.70
2023-03-01T03:05:11.507Z,47.60
2023-03-01T03:07:42.162Z,47.60
2023-03-01T03:10:13.175Z,47.60
2023-03-01T03:12:41.888Z,47.60
2023-03-01T03:15:13.666Z,47.60
2023-03-01T03:17:45.163Z,47.60
2023-03-01T03:20:19.883Z,47.60
2023-03-01T03:22:48.855Z,47.60
2023-03-01T03:25:17.184Z,47.60
2023-03-01T03:27:46.627Z,47.60
2023-03-01T03:30:19.395Z,47.60
2023-03-01T03:32:53.217Z,47.60
2023-03-01T03:35:22.817Z,47.60
2023-03-01T03:38:07.160Z,47.60
2023-03-01T03:40:37.719Z,47.60
2023-03-01T03:43:08.351Z,47.60
2023-03-01T03:45:38.410Z,47.60
2023-03-01T03:48:08.832Z,47.60
2023-03-01T03:50:36.719Z,47.60
2023-03-01T03:53:06.557Z,47.60
2023-03-01T03:55:34.929Z,47.60
2023-03-01T03:58:07.838Z,47.70
2023-03-01T04:00:39.484Z,47.60
2023-03-01T04:03:07.579Z,47.60
2023-03-01T04:05:35.996Z,47.60
2023-03-01T04:08:04.025Z,47.70
2023-03-01T04:10:33.742Z,47.60
2023-03-01T04:13:01.658Z,48.30
2023-03-01T04:15:30.036Z,47.60
2023-03-01T04:18:00.003Z,47.60
2023-03-01T04:20:31.023Z,47.60
2023-03-01T04:23:11.369Z,47.60
2023-03-01T04:25:41.189Z,47.60
2023-03-01T04:28:09.380Z,47.60
2023-03-01T04:30:37.710Z,47.60
2023-03-01T04:33:09.746Z,47.60
2023-03-01T04:35:38.854Z,47.60
2023-03-01T04:38:07.077Z,47.60
2023-03-01T04:40:35.238Z,47.60
2023-03-01T04:43:03.325Z,47.60
2023-03-01T04:45:31.413Z,47.60
2023-03-01T04:47:59.507Z,47.60
2023-03-01T04:50:28.791Z,48.20
2023-03-01T04:52:59.338Z,47.60
2023-03-01T04:55:28.274Z,47.60
2023-03-01T04:57:56.595Z,47.60
2023-03-01T05:00:24.984Z,47.60
2023-03-01T05:02:55.164Z,47.60
2023-03-01T05:05:26.475Z,47.60
2023-03-01T05:07:57.748Z,47.60
2023-03-01T05:10:26.593Z,47.60
2023-03-01T05:12:54.495Z,47.60
2023-03-01T05:15:26.451Z,47.60
2023-03-01T05:17:56.087Z,47.60
2023-03-01T05:20:27.026Z,47.60
2023-03-01T05:22:59.551Z,47.60
2023-03-01T05:25:27.861Z,47.60
2023-03-01T05:27:55.812Z,47.60
2023-03-01T05:30:23.832Z,47.60
2023-03-01T05:32:56.539Z,47.60
2023-03-01T05:35:25.049Z,47.60
2023-03-01T05:37:53.626Z,47.60
2023-03-01T05:40:25.218Z,47.60
2023-03-01T05:42:55.682Z,47.60
2023-03-01T05:45:24.778Z,47.60
2023-03-01T05:47:53.365Z,47.60
2023-03-01T05:50:23.975Z,47.60
2023-03-01T05:52:53.766Z,47.60
2023-03-01T05:55:23.642Z,47.60
2023-03-01T05:57:52.091Z,47.60
2023-03-01T06:00:23.066Z,47.60
2023-03-01T06:02:51.383Z,47.60
2023-03-01T06:05:19.542Z,47.60
2023-03-01T06:07:48.525Z,47.60
2023-03-01T06:10:16.661Z,47.60
2023-03-01T06:12:46.035Z,47.60
2023-03-01T06:15:15.919Z,47.60
2023-03-01T06:17:45.282Z,47.60
2023-03-01T06:20:16.317Z,47.50
2023-03-01T06:22:44.550Z,47.60
2023-03-01T06:25:13.840Z,47.60
2023-03-01T06:27:41.927Z,47.50
2023-03-01T06:30:13.284Z,47.50
2023-03-01T06:32:42.931Z,47.60
2023-03-01T06:35:11.992Z,47.60
2023-03-01T06:37:40.520Z,47.50
2023-03-01T06:40:12.467Z,47.60
2023-03-01T06:42:42.342Z,47.60
2023-03-01T06:45:12.763Z,47.60
2023-03-01T06:47:40.871Z,47.60
2023-03-01T06:50:09.774Z,47.60
2023-03-01T06:52:37.815Z,47.60
2023-03-01T06:55:06.996Z,47.60
2023-03-01T06:57:35.250Z,47.60
2023-03-01T07:00:03.451Z,47.60
2023-03-01T07:02:32.822Z,47.60
2023-03-01T07:05:00.701Z,47.60
2023-03-01T07:07:28.641Z,47.60
2023-03-01T07:09:56.494Z,47.60
2023-03-01T07:12:24.374Z,47.60
2023-03-01T07:14:52.242Z,47.60
2023-03-01T07:17:20.445Z,47.50
2023-03-01T07:19:50.053Z,47.60
2023-03-01T07:22:18.010Z,47.60
2023-03-01T07:24:46.038Z,47.60
2023-03-01T07:27:13.876Z,47.60
2023-03-01T07:29:41.757Z,47.60
2023-03-01T07:32:13.546Z,47.60
2023-03-01T07:34:41.484Z,47.60
2023-03-01T07:37:10.704Z,47.60
2023-03-01T07:39:38.570Z,47.60
2023-03-01T07:42:06.401Z,47.60
2023-03-01T07:44:34.491Z,47.60
2023-03-01T07:47:02.514Z,47.60
2023-03-01T07:49:30.386Z,47.60
2023-03-01T07:51:58.442Z,47.60
2023-03-01T07:54:28.749Z,47.60
2023-03-01T07:56:58.109Z,47.60
2023-03-01T07:59:29.879Z,47.60
2023-03-01T08:01:57.919Z,47.60
2023-03-01T08:04:27.621Z,47.60
2023-03-01T08:06:55.913Z,47.60
2023-03-01T08:09:23.800Z,47.60
2023-03-01T08:11:53.078Z,47.60
2023-03-01T08:14:20.943Z,47.60
2023-03-01T08:16:51.616Z,47.60
2023-03-01T08:19:19.943Z,47.60
2023-03-01T08:21:47.814Z,47.60
2023-03-01T08:24:15.749Z,47.60
2023-03-01T08:26:43.637Z,47.60
2023-03-01T08:29:12.826Z,47.60
2023-03-01T08:31:42.291Z,47.60
2023-03-01T08:34:13.329Z,47.60
2023-03-01T08:36:42.966Z,47.60
2023-03-01T08:39:12.080Z,47.60
2023-03-01T08:41:40.324Z,47.60
2023-03-01T08:44:08.944Z,47.60
2023-03-01T08:46:40.161Z,47.60
2023-03-01T08:49:08.987Z,47.60
2023-03-01T08:51:38.520Z,47.60
2023-03-01T08:54:06.760Z,47.60
2023-03-01T08:56:35.539Z,47.60
2023-03-01T08:59:03.448Z,47.60
2023-03-01T09:01:31.380Z,47.60
2023-03-01T09:04:00.643Z,47.60
2023-03-01T09:06:28.670Z,47.60
2023-03-01T09:08:56.874Z,47.60
2023-03-01T09:11:24.834Z,47.60
2023-03-01T09:13:53.371Z,47.60
2023-03-01T09:16:22.854Z,47.60
2023-03-01T09:18:52.689Z,47.60
2023-03-01T09:21:37.656Z,47.60
2023-03-01T09:24:07.555Z,47.60
2023-03-01T09:26:35.395Z,47.60
2023-03-01T09:29:03.294Z,47.60
2023-03-01T09:31:31.140Z,47.60
2023-03-01T09:33:59.020Z,47.60
2023-03-01T09:36:28.284Z,47.60
2023-03-01T09:38:56.212Z,47.60
2023-03-01T09:41:45.885Z,47.60
2023-03-01T09:44:22.754Z,47.60
2023-03-01T09:46:50.949Z,47.60
2023-03-01T09:49:22.078Z,47.60
2023-03-01T09:51:57.848Z,47.60
2023-03-01T09:54:25.737Z,47.60
2023-03-01T09:57:07.131Z,47.70
2023-03-01T09:59:46.175Z,47.60
2023-03-01T10:02:27.038Z,47.60
2023-03-01T10:04:59.422Z,47.60
2023-03-01T10:07:42.482Z,47.60
2023-03-01T10:10:16.634Z,47.60
2023-03-01T10:12:46.666Z,47.70
2023-03-01T10:15:18.803Z,47.70
2023-03-01T10:17:51.652Z,47.70
2023-03-01T10:20:23.272Z,47.70
2023-03-01T10:22:53.625Z,47.60
2023-03-01T10:25:37.528Z,47.70
2023-03-01T10:28:12.519Z,47.60
2023-03-01T10:30:43.543Z,47.70
2023-03-01T10:33:18.425Z,47.70
2023-03-01T10:35:46.364Z,47.70
2023-03-01T10:38:17.221Z,47.70
2023-03-01T10:40:57.866Z,47.70
2023-03-01T10:43:27.163Z,47.70
2023-03-01T10:45:55.086Z,47.70
2023-03-01T10:48:27.035Z,47.70
2023-03-01T10:51:07.874Z,47.70
2023-03-01T10:53:39.723Z,47.70
2023-03-01T10:56:09.843Z,47.70
2023-03-01T10:58:39.449Z,47.70
2023-03-01T11:01:25.618Z,47.70
2023-03-01T11:04:12.341Z,47.70
2023-03-01T11:06:41.868Z,47.70
2023-03-01T11:09:19.476Z,47.70
2023-03-01T11:11:48.021Z,47.70
2023-03-01T11:14:26.771Z,47.70
2023-03-01T11:17:03.364Z,47.70
2023-03-01T11:19:31.619Z,47.70
2023-03-01T11:22:04.149Z,47.70
2023-03-01T11:24:41.690Z,47.70
2023-03-01T11:27:18.911Z,47.80
2023-03-01T11:29:52.078Z,47.70
2023-03-01T11:32:23.209Z,47.80
2023-03-01T11:34:56.680Z,47.80
2023-03-01T11:37:34.962Z,47.80
2023-03-01T11:40:15.607Z,47.80
2023-03-01T11:42:59.681Z,47.80
2023-03-01T11:45:31.077Z,47.80
2023-03-01T11:48:09.190Z,47.80
2023-03-01T11:50:43.886Z,47.90
2023-03-01T11:53:51.493Z,47.80
2023-03-01T11:56:30.486Z,47.80
2023-03-01T11:59:41.319Z,47.80
2023-03-01T12:02:42.949Z,47.80
2023-03-01T12:05:43.183Z,47.80
2023-03-01T12:08:18.761Z,47.80
2023-03-01T12:10:59.121Z,47.80
2023-03-01T12:13:57.916Z,47.80
2023-03-01T12:16:40.546Z,47.80
2023-03-01T12:19:30.680Z,47.90
2023-03-01T12:22:20.020Z,47.80
2023-03-01T12:25:22.158Z,47.80
2023-03-01T12:28:16.779Z,47.80
2023-03-01T12:31:26.422Z,47.90
2023-03-01T12:34:02.106Z,47.80
2023-03-01T12:36:42.520Z,47.90
2023-03-01T12:39:26.064Z,47.90
2023-03-01T12:42:05.810Z,47.90
2023-03-01T12:44:48.582Z,47.90
2023-03-01T12:47:27.573Z,47.90
2023-03-01T12:49:59.888Z,47.90
2023-03-01T12:52:37.652Z,47.90
2023-03-01T12:55:10.949Z,47.90
2023-03-01T12:57:43.024Z,47.90
2023-03-01T13:00:28.246Z,47.90
2023-03-01T13:03:02.665Z,47.90
2023-03-01T13:05:41.408Z,47.90
2023-03-01T13:08:17.880Z,47.90
2023-03-01T13:10:50.896Z,47.90
2023-03-01T13:13:23.094Z,47.90
2023-03-01T13:15:52.262Z,47.90
2023-03-01T13:18:33.388Z,47.90
2023-03-01T13:21:03.962Z,47.90
2023-03-01T13:23:38.441Z,47.90
2023-03-01T13:26:18.034Z,47.90
2023-03-01T13:29:02.106Z,47.90
2023-03-01T13:32:04.915Z,47.90
2023-03-01T13:34:53.483Z,47.90
2023-03-01T13:37:36.158Z,47.90
2023-03-01T13:40:27.597Z,47.90
2023-03-01T13:43:05.234Z,47.90
2023-03-01T13:45:40.810Z,47.90
2023-03-01T13:48:17.360Z,47.90
2023-03-01T13:50:50.839Z,47.90
2023-03-01T13:53:21.068Z,47.90
2023-03-01T13:55:52.914Z,47.90
2023-03-01T13:58:27.078Z,47.90
2023-03-01T14:01:00.230Z,47.90
2023-03-01T14:03:29.088Z,47.90
2023-03-01T14:06:14.703Z,47.90
2023-03-01T14:08:44.491Z,47.90
2023-03-01T14:11:50.991Z,48.00
2023-03-01T14:14:57.199Z,47.90
2023-03-01T14:17:40.625Z,47.90
2023-03-01T14:20:16.249Z,47.90
2023-03-01T14:22:46.394Z,47.90
2023-03-01T14:25:25.583Z,48.00
2023-03-01T14:27:58.034Z,48.00
2023-03-01T14:30:28.817Z,47.90
2023-03-01T14:32:58.450Z,47.90
2023-03-01T14:35:28.362Z,47.90
2023-03-01T14:37:57.694Z,48.00
2023-03-01T14:40:29.256Z,47.90
2023-03-01T14:43:00.950Z,47.90
2023-03-01T14:45:32.483Z,48.10
2023-03-01T14:48:02.958Z,48.00
2023-03-01T14:50:33.034Z,48.00
2023-03-01T14:53:05.506Z,48.60
2023-03-01T14:55:36.715Z,47.90
2023-03-01T14:58:05.910Z,48.00
2023-03-01T15:00:35.410Z,48.10
2023-03-01T15:03:10.744Z,48.10
2023-03-01T15:05:39.356Z,48.10
2023-03-01T15:08:09.951Z,48.10
2023-03-01T15:10:40.581Z,48.10
2023-03-01T15:13:15.295Z,48.10
2023-03-01T15:15:47.257Z,48.10
2023-03-01T15:18:19.590Z,48.00
2023-03-01T15:20:48.511Z,48.10
2023-03-01T15:23:25.054Z,48.10
2023-03-01T15:25:57.494Z,48.10
2023-03-01T15:28:27.650Z,48.10
2023-03-01T15:30:58.585Z,48.10
2023-03-01T15:33:35.984Z,48.10
2023-03-01T15:36:05.669Z,48.10
2023-03-01T15:38:40.048Z,48.10
2023-03-01T15:41:24.963Z,48.10
2023-03-01T15:43:55.212Z,48.10
2023-03-01T15:46:27.245Z,48.10
2023-03-01T15:48:58.296Z,48.10
2023-03-01T15:51:35.295Z,48.10
2023-03-01T15:54:08.402Z,48.10
2023-03-01T15:56:36.454Z,48.10
2023-03-01T15:59:05.593Z,48.10
2023-03-01T16:01:35.250Z,48.10
2023-03-01T16:04:03.350Z,48.10
2023-03-01T16:06:31.586Z,48.10
2023-03-01T16:08:59.627Z,48.10
2023-03-01T16:11:29.685Z,48.10
2023-03-01T16:13:57.598Z,48.10
2023-03-01T16:16:25.613Z,48.10
2023-03-01T16:18:55.506Z,48.10
2023-03-01T16:21:25.892Z,48.10
2023-03-01T16:23:54.518Z,48.10
2023-03-01T16:26:22.776Z,48.10
2023-03-01T16:28:52.282Z,48.00
2023-03-01T16:31:21.595Z,48.00
2023-03-01T16:33:52.397Z,48.00
2023-03-01T16:36:24.397Z,48.00
2023-03-01T16:38:52.866Z,48.20
2023-03-01T16:41:22.750Z,48.10
2023-03-01T16:43:52.534Z,48.20
2023-03-01T16:46:22.981Z,48.20
2023-03-01T16:48:51.793Z,48.10
2023-03-01T16:51:20.968Z,48.10
2023-03-01T16:53:48.938Z,48.10
2023-03-01T16:56:17.382Z,48.20
2023-03-01T16:58:45.516Z,48.20
2023-03-01T17:01:16.731Z,48.10
2023-03-01T17:03:47.128Z,48.20
2023-03-01T17:06:17.344Z,48.20
2023-03-01T17:08:45.264Z,48.20
2023-03-01T17:11:14.598Z,48.20
2023-03-01T17:13:43.515Z,48.10
2023-03-01T17:16:15.470Z,48.20
2023-03-01T17:18:43.674Z,48.20
2023-03-01T17:21:12.121Z,48.10
2023-03-01T17:23:42.938Z,48.20
2023-03-01T17:26:10.944Z,48.20
2023-03-01T17:28:39.108Z,48.20
2023-03-01T17:31:08.105Z,48.10
2023-03-01T17:33:37.569Z,48.20
2023-03-01T17:36:06.034Z,48.20
2023-03-01T17:38:33.939Z,48.80
2023-03-01T17:41:02.286Z,48.20
2023-03-01T17:43:30.558Z,48.20
2023-03-01T17:45:58.887Z,48.20
2023-03-01T17:48:26.817Z,48.20
2023-03-01T17:50:56.023Z,48.20
2023-03-01T17:53:23.981Z,48.20
2023-03-01T17:56:00.588Z,48.20
2023-03-01T17:58:28.510Z,48.10
2023-03-01T18:00:56.407Z,48.20
2023-03-01T18:03:24.315Z,48.20
2023-03-01T18:05:52.154Z,48.10
2023-03-01T18:08:21.318Z,48.10
2023-03-01T18:10:49.185Z,48.10
2023-03-01T18:13:17.560Z,48.10
2023-03-01T18:15:45.403Z,48.20
2023-03-01T18:18:13.259Z,48.10
2023-03-01T18:20:41.115Z,48.20
2023-03-01T18:23:08.987Z,48.20
2023-03-01T18:25:40.514Z,48.20
2023-03-01T18:28:08.328Z,48.20
2023-03-01T18:30:36.845Z,48.20
2023-03-01T18:33:04.837Z,48.20
2023-03-01T18:35:32.752Z,48.20
2023-03-01T18:38:00.612Z,48.20
2023-03-01T18:40:30.117Z,48.20
2023-03-01T18:42:59.338Z,48.20
2023-03-01T18:45:27.293Z,48.20
2023-03-01T18:47:55.212Z,48.20
2023-03-01T18:50:23.036Z,48.20
2023-03-01T18:52:50.897Z,48.20
2023-03-01T18:55:18.886Z,48.20
2023-03-01T18:57:46.752Z,48.30
2023-03-01T19:00:18.567Z,48.20
2023-03-01T19:02:47.471Z,48.20
2023-03-01T19:05:16.520Z,48.10
2023-03-01T19:07:45.229Z,48.10
2023-03-01T19:10:13.410Z,48.20
2023-03-01T19:12:41.268Z,48.20
2023-03-01T19:15:09.517Z,48.20
2023-03-01T19:17:38.795Z,48.20
2023-03-01T19:20:08.056Z,48.30
2023-03-01T19:22:35.905Z,48.20
2023-03-01T19:25:03.878Z,48.20
2023-03-01T19:27:31.774Z,48.20
2023-03-01T19:29:59.682Z,48.20
2023-03-01T19:32:27.616Z,48.20
2023-03-01T19:34:56.847Z,48.10
2023-03-01T19:37:24.820Z,48.30
2023-03-01T19:39:52.664Z,48.20
2023-03-01T19:42:20.520Z,48.20
2023-03-01T19:44:48.347Z,48.20
2023-03-01T19:47:16.246Z,48.20
2023-03-01T19:49:44.081Z,48.20
2023-03-01T19:52:13.368Z,48.20
2023-03-01T19:54:41.218Z,48.20
2023-03-01T19:57:09.071Z,48.20
2023-03-01T19:59:37.117Z,48.20
2023-03-01T20:02:05.075Z,48.20
2023-03-01T20:04:33.049Z,48.20
2023-03-01T20:07:00.920Z,48.20
2023-03-01T20:09:30.128Z,48.20
2023-03-01T20:11:57.989Z,48.20
2023-03-01T20:14:25.879Z,48.20
2023-03-01T20:16:54.015Z,48.20
2023-03-01T20:19:22.137Z,48.20
2023-03-01T20:21:50.045Z,48.20
2023-03-01T20:24:18.011Z,48.20
2023-03-01T20:26:47.217Z,48.20
2023-03-01T20:29:15.121Z,48.20
2023-03-01T20:31:43.110Z,48.20
2023-03-01T20:34:11.216Z,48.20
2023-03-01T20:36:40.978Z,48.20
2023-03-01T20:39:09.609Z,48.20
2023-03-01T20:41:37.516Z,48.20
2023-03-01T20:44:07.461Z,48.20
2023-03-01T20:46:36.474Z,48.20
2023-03-01T20:49:05.883Z,48.20
2023-03-01T20:51:34.181Z,48.20
2023-03-01T20:54:02.039Z,48.20
2023-03-01T20:56:30.451Z,48.20
2023-03-01T20:58:58.695Z,48.20
2023-03-01T21:01:27.955Z,48.20
2023-03-01T21:03:55.888Z,48.20
2023-03-01T21:06:24.011Z,48.20
2023-03-01T21:08:52.632Z,48.20
2023-03-01T21:11:24.777Z,48.20
2023-03-01T21:13:52.832Z,48.20
2023-03-01T21:16:21.142Z,48.20
2023-03-01T21:18:50.447Z,48.20
2023-03-01T21:21:20.920Z,48.20
2023-03-01T21:23:49.613Z,48.20
2023-03-01T21:26:20.264Z,48.20
2023-03-01T21:28:50.171Z,48.20
2023-03-01T21:31:20.547Z,48.20
2023-03-01T21:33:51.879Z,48.80
2023-03-01T21:36:21.122Z,48.20
2023-03-01T21:38:50.266Z,48.20
2023-03-01T21:41:20.698Z,48.20
2023-03-01T21:43:50.955Z,48.20
2023-03-01T21:46:20.519Z,48.20
2023-03-01T21:48:49.733Z,48.20
2023-03-01T21:51:20.614Z,48.20
2023-03-01T21:53:48.846Z,48.20
2023-03-01T21:56:17.828Z,48.20
2023-03-01T21:58:45.886Z,48.20
2023-03-01T22:01:16.306Z,48.20
2023-03-01T22:03:46.496Z,48.20
2023-03-01T22:06:19.166Z,48.20
2023-03-01T22:08:50.968Z,48.20
2023-03-01T22:11:20.410Z,48.20
2023-03-01T22:13:51.656Z,48.20
2023-03-01T22:16:21.025Z,48.20
2023-03-01T22:18:49.277Z,48.80
2023-03-01T22:21:17.594Z,48.20
2023-03-01T22:23:45.786Z,48.20
2023-03-01T22:26:25.018Z,48.20
2023-03-01T22:28:53.324Z,48.20
2023-03-01T22:31:21.891Z,48.20
2023-03-01T22:33:49.967Z,48.20
2023-03-01T22:36:18.153Z,48.20
2023-03-01T22:38:46.863Z,48.20
2023-03-01T22:41:15.825Z,48.20
2023-03-01T22:43:45.036Z,48.20
2023-03-01T22:46:14.754Z,48.20
2023-03-01T22:48:42.880Z,48.20
2023-03-01T22:51:15.961Z,48.20
2023-03-01T22:53:43.835Z,48.20
2023-03-01T22:56:13.763Z,48.20
2023-03-01T22:58:41.672Z,48.20
2023-03-01T23:01:16.445Z,48.20
2023-03-01T23:03:45.288Z,48.20
2023-03-01T23:06:13.478Z,48.20
2023-03-01T23:08:41.601Z,48.20
2023-03-01T23:11:13.760Z,48.20
2023-03-01T23:13:42.452Z,48.20
2023-03-01T23:16:11.529Z,48.90
2023-03-01T23:18:42.434Z,48.20
2023-03-01T23:21:11.965Z,48.20
2023-03-01T23:23:39.893Z,48.20
2023-03-01T23:26:08.591Z,48.20
2023-03-01T23:28:40.783Z,48.20
2023-03-01T23:31:11.258Z,48.20
2023-03-01T23:33:43.082Z,48.20
2023-03-01T23:36:17.641Z,48.20
2023-03-01T23:38:45.970Z,48.20
2023-03-01T23:41:15.109Z,48.20
2023-03-01T23:43:45.658Z,48.20
2023-03-01T23:46:14.400Z,48.20
2023-03-01T23:48:44.531Z,48.20
2023-03-01T23:51:13.533Z,48.20
2023-03-01T23:53:53.929Z,48.20
2023-03-01T23:56:26.701Z,48.20
2023-03-01T23:58:55.181Z,48.20
